Main page
METAR-TAF:

METAR-TAF

Airports :

Bandar Lengeh Airport

Bandar Lengeh, Iran

latitude: 26-35N, longitude: 054-50E, elevation: 14 m

Current weather observation

The report was made 1 hour and 33 minutes ago, at 21:00 UTC
Wind 4 kt from the East/Northeast
Temperature 18°C
Humidity 100%
Pressure 1014 hPa
Visibility: 3000 m
Few clouds at a height of 2500 ft, Cumulonimbus.
Scattered clouds at a height of 3000 ft
Overcast at a height of 7000 ft
rain

METAR: OIBL 102100Z 06004KT 3000 RA FEW025CB SCT030 OVC070 18/18 Q1014

Time: 02:03 (22:33 UTC)


TAF: missing

Weather observations and forecasts of more than 4000 airports (METAR and TAF reports).

The available stations are represented by yellow and red dots on the map.

Hover mouse over dot to see the name of the station.

Then click to see weather observations and forecasts.

To change the map : click on the green buttons with a black cross to zoom in, on the green button with a dash to zoom out, or on the green arrows for adjacent maps.


METAR-TAF: